Terminal Aerodrome Forecast
Issued by NWS

Current Version | Previous Version | Text Only | Print | Product List | Glossary On
Versions: 1 2 3 4 5 6 7 8 9 10 11 12 13 14 15 16 17 18 19 20 21
902
FTUS41 KLWX 282113 AAA
TAFMTN
TAF AMD
KMTN 282113Z 2821/2918 20005KT P6SM BKN025
     FM290000 33004KT P6SM BKN030
     FM290200 33007KT P6SM OVC040
     FM290500 34008KT P6SM OVC020
     FM290800 34009KT P6SM BKN040
     FM291300 35010G18KT P6SM SCT150=

USA.gov is the U.S. government's official web portal to all federal, state and local government web resources and services.